sensor_id;sensor_type;location;lat;lon;timestamp;P1;durP1;ratioP1;P2;durP2;ratioP2
63320;SDS011;49449;48.800;9.534;2023-07-08T00:01:17;9.25;;;6.63;;
63320;SDS011;49449;48.800;9.534;2023-07-08T00:06:16;8.93;;;6.05;;
63320;SDS011;49449;48.800;9.534;2023-07-08T00:08:45;7.93;;;6.20;;
63320;SDS011;49449;48.800;9.534;2023-07-08T00:11:13;8.10;;;6.30;;
63320;SDS011;49449;48.800;9.534;2023-07-08T00:13:42;7.57;;;6.43;;
63320;SDS011;49449;48.800;9.534;2023-07-08T00:16:12;9.02;;;7.05;;
63320;SDS011;49449;48.800;9.534;2023-07-08T00:18:41;8.65;;;6.53;;
63320;SDS011;49449;48.800;9.534;2023-07-08T00:21:10;8.43;;;6.47;;
63320;SDS011;49449;48.800;9.534;2023-07-08T00:23:42;8.15;;;5.90;;
63320;SDS011;49449;48.800;9.534;2023-07-08T00:26:13;8.50;;;6.60;;
63320;SDS011;49449;48.800;9.534;2023-07-08T00:28:45;8.40;;;6.63;;
63320;SDS011;49449;48.800;9.534;2023-07-08T00:31:15;8.93;;;7.03;;
63320;SDS011;49449;48.800;9.534;2023-07-08T00:33:42;9.20;;;6.75;;
63320;SDS011;49449;48.800;9.534;2023-07-08T00:36:11;8.23;;;6.50;;
63320;SDS011;49449;48.800;9.534;2023-07-08T00:38:41;8.95;;;5.75;;
63320;SDS011;49449;48.800;9.534;2023-07-08T00:41:12;8.75;;;6.78;;
63320;SDS011;49449;48.800;9.534;2023-07-08T00:43:45;8.30;;;6.40;;
63320;SDS011;49449;48.800;9.534;2023-07-08T00:46:21;8.07;;;6.22;;
63320;SDS011;49449;48.800;9.534;2023-07-08T00:49:00;9.18;;;6.65;;
63320;SDS011;49449;48.800;9.534;2023-07-08T00:51:35;7.32;;;5.57;;
63320;SDS011;49449;48.800;9.534;2023-07-08T00:54:04;8.75;;;6.13;;
63320;SDS011;49449;48.800;9.534;2023-07-08T00:56:34;8.70;;;6.10;;
63320;SDS011;49449;48.800;9.534;2023-07-08T00:59:06;8.27;;;6.03;;
63320;SDS011;49449;48.800;9.534;2023-07-08T01:01:39;8.25;;;6.75;;
63320;SDS011;49449;48.800;9.534;2023-07-08T01:04:10;7.32;;;5.60;;
63320;SDS011;49449;48.800;9.534;2023-07-08T01:06:41;7.72;;;6.60;;
63320;SDS011;49449;48.800;9.534;2023-07-08T01:09:13;8.20;;;6.25;;
63320;SDS011;49449;48.800;9.534;2023-07-08T01:11:43;8.75;;;6.15;;
63320;SDS011;49449;48.800;9.534;2023-07-08T01:14:11;7.95;;;6.07;;
63320;SDS011;49449;48.800;9.534;2023-07-08T01:16:46;8.98;;;6.55;;
63320;SDS011;49449;48.800;9.534;2023-07-08T01:19:17;8.70;;;6.22;;
63320;SDS011;49449;48.800;9.534;2023-07-08T01:22:00;8.40;;;6.50;;
63320;SDS011;49449;48.800;9.534;2023-07-08T01:24:29;9.32;;;6.68;;
63320;SDS011;49449;48.800;9.534;2023-07-08T01:26:58;8.13;;;6.18;;
63320;SDS011;49449;48.800;9.534;2023-07-08T01:29:28;8.00;;;5.75;;
63320;SDS011;49449;48.800;9.534;2023-07-08T01:31:56;9.25;;;6.38;;
63320;SDS011;49449;48.800;9.534;2023-07-08T01:34:24;8.00;;;6.60;;
63320;SDS011;49449;48.800;9.534;2023-07-08T01:36:53;7.45;;;5.57;;
63320;SDS011;49449;48.800;9.534;2023-07-08T01:39:24;7.32;;;6.25;;
63320;SDS011;49449;48.800;9.534;2023-07-08T01:41:55;8.07;;;6.00;;
63320;SDS011;49449;48.800;9.534;2023-07-08T01:44:28;8.25;;;6.25;;
63320;SDS011;49449;48.800;9.534;2023-07-08T01:46:58;7.80;;;6.07;;
63320;SDS011;49449;48.800;9.534;2023-07-08T01:49:29;8.68;;;5.40;;
63320;SDS011;49449;48.800;9.534;2023-07-08T01:51:58;7.82;;;6.20;;
63320;SDS011;49449;48.800;9.534;2023-07-08T01:54:28;7.72;;;5.97;;
63320;SDS011;49449;48.800;9.534;2023-07-08T01:56:56;8.13;;;5.65;;
63320;SDS011;49449;48.800;9.534;2023-07-08T01:59:24;8.85;;;6.63;;
63320;SDS011;49449;48.800;9.534;2023-07-08T02:01:52;8.70;;;6.28;;
63320;SDS011;49449;48.800;9.534;2023-07-08T02:04:22;7.35;;;5.55;;
63320;SDS011;49449;48.800;9.534;2023-07-08T02:06:51;7.68;;;5.88;;
63320;SDS011;49449;48.800;9.534;2023-07-08T02:09:19;8.45;;;6.72;;
63320;SDS011;49449;48.800;9.534;2023-07-08T02:11:49;7.75;;;6.25;;
63320;SDS011;49449;48.800;9.534;2023-07-08T02:14:17;8.55;;;6.53;;
63320;SDS011;49449;48.800;9.534;2023-07-08T02:16:45;7.57;;;5.95;;
63320;SDS011;49449;48.800;9.534;2023-07-08T02:19:12;7.70;;;6.18;;
63320;SDS011;49449;48.800;9.534;2023-07-08T02:21:40;7.75;;;5.90;;
63320;SDS011;49449;48.800;9.534;2023-07-08T02:24:09;8.68;;;6.00;;
63320;SDS011;49449;48.800;9.534;2023-07-08T02:26:37;8.27;;;5.88;;
63320;SDS011;49449;48.800;9.534;2023-07-08T02:29:06;9.70;;;5.93;;
63320;SDS011;49449;48.800;9.534;2023-07-08T02:31:34;7.55;;;6.30;;
63320;SDS011;49449;48.800;9.534;2023-07-08T02:34:01;8.38;;;5.97;;
63320;SDS011;49449;48.800;9.534;2023-07-08T02:36:29;9.15;;;5.63;;
63320;SDS011;49449;48.800;9.534;2023-07-08T02:38:57;7.50;;;5.63;;
63320;SDS011;49449;48.800;9.534;2023-07-08T02:41:25;9.80;;;6.28;;
63320;SDS011;49449;48.800;9.534;2023-07-08T02:43:53;7.68;;;6.25;;
63320;SDS011;49449;48.800;9.534;2023-07-08T02:46:22;7.47;;;6.38;;
63320;SDS011;49449;48.800;9.534;2023-07-08T02:48:50;7.63;;;5.88;;
63320;SDS011;49449;48.800;9.534;2023-07-08T02:51:18;7.53;;;5.80;;
63320;SDS011;49449;48.800;9.534;2023-07-08T02:53:46;7.32;;;5.60;;
63320;SDS011;49449;48.800;9.534;2023-07-08T02:56:15;8.13;;;6.15;;
63320;SDS011;49449;48.800;9.534;2023-07-08T02:58:43;6.88;;;6.00;;
63320;SDS011;49449;48.800;9.534;2023-07-08T03:01:11;6.78;;;5.80;;
63320;SDS011;49449;48.800;9.534;2023-07-08T03:03:45;9.30;;;6.22;;
63320;SDS011;49449;48.800;9.534;2023-07-08T03:06:13;8.57;;;6.05;;
63320;SDS011;49449;48.800;9.534;2023-07-08T03:08:41;8.23;;;6.18;;
63320;SDS011;49449;48.800;9.534;2023-07-08T03:11:09;7.55;;;6.18;;
63320;SDS011;49449;48.800;9.534;2023-07-08T03:13:38;9.40;;;6.90;;
63320;SDS011;49449;48.800;9.534;2023-07-08T03:16:05;8.00;;;5.97;;
63320;SDS011;49449;48.800;9.534;2023-07-08T03:18:38;8.52;;;5.80;;
63320;SDS011;49449;48.800;9.534;2023-07-08T03:21:14;7.90;;;6.18;;
63320;SDS011;49449;48.800;9.534;2023-07-08T03:23:43;7.40;;;5.78;;
63320;SDS011;49449;48.800;9.534;2023-07-08T03:26:12;8.68;;;6.18;;
63320;SDS011;49449;48.800;9.534;2023-07-08T03:28:42;8.05;;;6.03;;
63320;SDS011;49449;48.800;9.534;2023-07-08T03:31:10;8.07;;;6.20;;
63320;SDS011;49449;48.800;9.534;2023-07-08T03:33:38;6.78;;;5.60;;
63320;SDS011;49449;48.800;9.534;2023-07-08T03:36:08;7.43;;;5.68;;
63320;SDS011;49449;48.800;9.534;2023-07-08T03:38:40;6.53;;;5.22;;
63320;SDS011;49449;48.800;9.534;2023-07-08T03:41:08;7.10;;;5.20;;
63320;SDS011;49449;48.800;9.534;2023-07-08T03:43:36;9.02;;;6.30;;
63320;SDS011;49449;48.800;9.534;2023-07-08T03:46:03;9.50;;;7.03;;
63320;SDS011;49449;48.800;9.534;2023-07-08T03:48:31;8.45;;;6.40;;
63320;SDS011;49449;48.800;9.534;2023-07-08T03:50:59;9.00;;;6.35;;
63320;SDS011;49449;48.800;9.534;2023-07-08T03:53:27;8.00;;;6.00;;
63320;SDS011;49449;48.800;9.534;2023-07-08T03:55:56;7.65;;;6.00;;
63320;SDS011;49449;48.800;9.534;2023-07-08T03:58:24;7.97;;;5.80;;
63320;SDS011;49449;48.800;9.534;2023-07-08T04:00:52;8.05;;;5.88;;
63320;SDS011;49449;48.800;9.534;2023-07-08T04:03:20;8.27;;;6.72;;
63320;SDS011;49449;48.800;9.534;2023-07-08T04:05:48;7.97;;;6.10;;
63320;SDS011;49449;48.800;9.534;2023-07-08T04:08:16;7.57;;;6.15;;
63320;SDS011;49449;48.800;9.534;2023-07-08T04:10:43;8.15;;;6.28;;
63320;SDS011;49449;48.800;9.534;2023-07-08T04:13:12;8.35;;;6.30;;
63320;SDS011;49449;48.800;9.534;2023-07-08T04:15:40;8.70;;;6.85;;
63320;SDS011;49449;48.800;9.534;2023-07-08T04:18:08;8.38;;;6.07;;
63320;SDS011;49449;48.800;9.534;2023-07-08T04:20:36;7.93;;;6.15;;
63320;SDS011;49449;48.800;9.534;2023-07-08T04:23:04;7.45;;;6.38;;
63320;SDS011;49449;48.800;9.534;2023-07-08T04:25:31;8.02;;;6.20;;
63320;SDS011;49449;48.800;9.534;2023-07-08T04:27:59;9.18;;;5.85;;
63320;SDS011;49449;48.800;9.534;2023-07-08T04:30:28;6.90;;;5.85;;
63320;SDS011;49449;48.800;9.534;2023-07-08T04:32:56;7.45;;;5.85;;
63320;SDS011;49449;48.800;9.534;2023-07-08T04:35:24;8.38;;;6.28;;
63320;SDS011;49449;48.800;9.534;2023-07-08T04:37:52;7.05;;;5.53;;
63320;SDS011;49449;48.800;9.534;2023-07-08T04:40:20;7.70;;;6.20;;
63320;SDS011;49449;48.800;9.534;2023-07-08T04:42:48;7.50;;;5.95;;
63320;SDS011;49449;48.800;9.534;2023-07-08T04:45:18;6.85;;;5.78;;
63320;SDS011;49449;48.800;9.534;2023-07-08T04:47:47;7.32;;;5.68;;
63320;SDS011;49449;48.800;9.534;2023-07-08T04:50:18;8.20;;;6.43;;
63320;SDS011;49449;48.800;9.534;2023-07-08T04:52:46;8.13;;;5.18;;
63320;SDS011;49449;48.800;9.534;2023-07-08T04:55:16;7.97;;;5.70;;
63320;SDS011;49449;48.800;9.534;2023-07-08T04:57:44;7.43;;;6.20;;
63320;SDS011;49449;48.800;9.534;2023-07-08T05:00:12;7.38;;;5.45;;
63320;SDS011;49449;48.800;9.534;2023-07-08T05:02:43;7.47;;;5.63;;
63320;SDS011;49449;48.800;9.534;2023-07-08T05:05:12;7.15;;;5.72;;
63320;SDS011;49449;48.800;9.534;2023-07-08T05:07:40;7.72;;;5.90;;
63320;SDS011;49449;48.800;9.534;2023-07-08T05:10:08;7.35;;;6.15;;
63320;SDS011;49449;48.800;9.534;2023-07-08T05:12:36;8.73;;;6.22;;
63320;SDS011;49449;48.800;9.534;2023-07-08T05:15:04;8.80;;;6.07;;
63320;SDS011;49449;48.800;9.534;2023-07-08T05:17:33;7.80;;;5.25;;
63320;SDS011;49449;48.800;9.534;2023-07-08T05:20:01;10.13;;;6.25;;
63320;SDS011;49449;48.800;9.534;2023-07-08T05:22:31;7.05;;;5.43;;
63320;SDS011;49449;48.800;9.534;2023-07-08T05:24:58;6.72;;;5.78;;
63320;SDS011;49449;48.800;9.534;2023-07-08T05:27:26;7.90;;;5.18;;
63320;SDS011;49449;48.800;9.534;2023-07-08T05:29:54;7.57;;;6.15;;
63320;SDS011;49449;48.800;9.534;2023-07-08T05:32:22;7.15;;;5.30;;
63320;SDS011;49449;48.800;9.534;2023-07-08T05:34:51;7.50;;;4.90;;
63320;SDS011;49449;48.800;9.534;2023-07-08T05:37:19;7.68;;;6.05;;
63320;SDS011;49449;48.800;9.534;2023-07-08T05:39:52;7.07;;;5.75;;
63320;SDS011;49449;48.800;9.534;2023-07-08T05:42:20;8.27;;;5.93;;
63320;SDS011;49449;48.800;9.534;2023-07-08T05:44:49;7.82;;;6.28;;
63320;SDS011;49449;48.800;9.534;2023-07-08T05:47:18;7.10;;;6.07;;
63320;SDS011;49449;48.800;9.534;2023-07-08T05:49:46;7.90;;;6.07;;
63320;SDS011;49449;48.800;9.534;2023-07-08T05:52:13;10.98;;;6.55;;
63320;SDS011;49449;48.800;9.534;2023-07-08T05:54:41;7.85;;;5.43;;
63320;SDS011;49449;48.800;9.534;2023-07-08T05:57:11;7.70;;;5.47;;
63320;SDS011;49449;48.800;9.534;2023-07-08T05:59:39;7.45;;;5.90;;
63320;SDS011;49449;48.800;9.534;2023-07-08T06:02:06;8.45;;;6.15;;
63320;SDS011;49449;48.800;9.534;2023-07-08T06:04:37;9.35;;;6.07;;
63320;SDS011;49449;48.800;9.534;2023-07-08T06:07:05;8.00;;;5.63;;
63320;SDS011;49449;48.800;9.534;2023-07-08T06:09:33;7.28;;;6.00;;
63320;SDS011;49449;48.800;9.534;2023-07-08T06:12:01;7.90;;;6.10;;
63320;SDS011;49449;48.800;9.534;2023-07-08T06:14:31;6.10;;;5.05;;
63320;SDS011;49449;48.800;9.534;2023-07-08T06:16:58;8.27;;;5.90;;
63320;SDS011;49449;48.800;9.534;2023-07-08T06:19:26;7.93;;;6.05;;
63320;SDS011;49449;48.800;9.534;2023-07-08T06:21:54;8.05;;;5.55;;
63320;SDS011;49449;48.800;9.534;2023-07-08T06:24:27;6.82;;;5.88;;
63320;SDS011;49449;48.800;9.534;2023-07-08T06:26:55;7.70;;;5.50;;
63320;SDS011;49449;48.800;9.534;2023-07-08T06:29:24;9.98;;;6.35;;
63320;SDS011;49449;48.800;9.534;2023-07-08T06:31:53;8.27;;;5.70;;
63320;SDS011;49449;48.800;9.534;2023-07-08T06:34:21;7.63;;;5.43;;
63320;SDS011;49449;48.800;9.534;2023-07-08T06:36:50;8.20;;;6.07;;
63320;SDS011;49449;48.800;9.534;2023-07-08T06:39:18;8.98;;;6.45;;
63320;SDS011;49449;48.800;9.534;2023-07-08T06:41:46;9.05;;;5.95;;
63320;SDS011;49449;48.800;9.534;2023-07-08T06:44:14;7.55;;;5.95;;
63320;SDS011;49449;48.800;9.534;2023-07-08T06:46:42;6.90;;;5.78;;
63320;SDS011;49449;48.800;9.534;2023-07-08T06:49:12;6.80;;;5.38;;
63320;SDS011;49449;48.800;9.534;2023-07-08T06:51:40;7.50;;;5.93;;
63320;SDS011;49449;48.800;9.534;2023-07-08T06:54:09;7.55;;;6.07;;
63320;SDS011;49449;48.800;9.534;2023-07-08T06:56:38;8.52;;;5.57;;
63320;SDS011;49449;48.800;9.534;2023-07-08T06:59:06;7.43;;;5.93;;
63320;SDS011;49449;48.800;9.534;2023-07-08T07:01:35;8.05;;;5.65;;
63320;SDS011;49449;48.800;9.534;2023-07-08T07:04:04;6.78;;;5.55;;
63320;SDS011;49449;48.800;9.534;2023-07-08T07:06:33;8.48;;;5.78;;
63320;SDS011;49449;48.800;9.534;2023-07-08T07:09:01;8.38;;;5.75;;
63320;SDS011;49449;48.800;9.534;2023-07-08T07:11:28;7.85;;;6.22;;
63320;SDS011;49449;48.800;9.534;2023-07-08T07:13:56;7.90;;;6.05;;
63320;SDS011;49449;48.800;9.534;2023-07-08T07:16:24;7.60;;;5.90;;
63320;SDS011;49449;48.800;9.534;2023-07-08T07:18:52;6.30;;;5.05;;
63320;SDS011;49449;48.800;9.534;2023-07-08T07:21:19;6.47;;;5.00;;
63320;SDS011;49449;48.800;9.534;2023-07-08T07:23:49;8.90;;;5.40;;
63320;SDS011;49449;48.800;9.534;2023-07-08T07:26:16;8.52;;;5.63;;
63320;SDS011;49449;48.800;9.534;2023-07-08T07:28:44;7.22;;;5.70;;
63320;SDS011;49449;48.800;9.534;2023-07-08T07:31:12;9.05;;;6.43;;
63320;SDS011;49449;48.800;9.534;2023-07-08T07:33:40;9.98;;;6.22;;
63320;SDS011;49449;48.800;9.534;2023-07-08T07:36:07;8.10;;;5.10;;
63320;SDS011;49449;48.800;9.534;2023-07-08T07:38:35;8.55;;;6.03;;
63320;SDS011;49449;48.800;9.534;2023-07-08T07:41:04;8.20;;;5.18;;
63320;SDS011;49449;48.800;9.534;2023-07-08T07:43:33;8.45;;;5.00;;
63320;SDS011;49449;48.800;9.534;2023-07-08T07:46:01;7.03;;;5.63;;
63320;SDS011;49449;48.800;9.534;2023-07-08T07:48:31;6.15;;;5.03;;
63320;SDS011;49449;48.800;9.534;2023-07-08T07:50:59;7.80;;;5.22;;
63320;SDS011;49449;48.800;9.534;2023-07-08T07:53:27;6.90;;;5.10;;
63320;SDS011;49449;48.800;9.534;2023-07-08T07:55:58;7.90;;;5.30;;
63320;SDS011;49449;48.800;9.534;2023-07-08T07:58:28;8.52;;;4.97;;
63320;SDS011;49449;48.800;9.534;2023-07-08T08:00:56;7.07;;;5.85;;
63320;SDS011;49449;48.800;9.534;2023-07-08T08:03:24;7.30;;;5.07;;
63320;SDS011;49449;48.800;9.534;2023-07-08T08:05:52;7.72;;;5.47;;
63320;SDS011;49449;48.800;9.534;2023-07-08T08:08:20;7.68;;;5.50;;
63320;SDS011;49449;48.800;9.534;2023-07-08T08:10:48;7.00;;;5.05;;
63320;SDS011;49449;48.800;9.534;2023-07-08T08:13:16;5.53;;;4.85;;
63320;SDS011;49449;48.800;9.534;2023-07-08T08:15:45;8.20;;;5.40;;
63320;SDS011;49449;48.800;9.534;2023-07-08T08:18:13;6.38;;;4.75;;
63320;SDS011;49449;48.800;9.534;2023-07-08T08:20:41;7.38;;;4.78;;
63320;SDS011;49449;48.800;9.534;2023-07-08T08:23:08;8.10;;;5.45;;
63320;SDS011;49449;48.800;9.534;2023-07-08T08:25:36;7.68;;;4.90;;
63320;SDS011;49449;48.800;9.534;2023-07-08T08:28:06;10.38;;;5.95;;
63320;SDS011;49449;48.800;9.534;2023-07-08T08:30:34;7.22;;;5.07;;
63320;SDS011;49449;48.800;9.534;2023-07-08T08:33:03;7.95;;;5.60;;
63320;SDS011;49449;48.800;9.534;2023-07-08T08:35:31;7.60;;;5.72;;
63320;SDS011;49449;48.800;9.534;2023-07-08T08:37:59;7.57;;;4.75;;
63320;SDS011;49449;48.800;9.534;2023-07-08T08:40:29;7.43;;;5.40;;
63320;SDS011;49449;48.800;9.534;2023-07-08T08:42:59;6.75;;;5.07;;
63320;SDS011;49449;48.800;9.534;2023-07-08T08:45:32;6.50;;;4.65;;
63320;SDS011;49449;48.800;9.534;2023-07-08T08:50:39;6.78;;;4.43;;
63320;SDS011;49449;48.800;9.534;2023-07-08T08:53:13;7.93;;;4.95;;
63320;SDS011;49449;48.800;9.534;2023-07-08T08:55:43;6.70;;;4.60;;
63320;SDS011;49449;48.800;9.534;2023-07-08T08:58:21;7.38;;;4.22;;
63320;SDS011;49449;48.800;9.534;2023-07-08T09:00:56;7.40;;;5.00;;
63320;SDS011;49449;48.800;9.534;2023-07-08T09:03:35;7.70;;;4.60;;
63320;SDS011;49449;48.800;9.534;2023-07-08T09:06:10;6.82;;;4.57;;
63320;SDS011;49449;48.800;9.534;2023-07-08T09:08:40;6.10;;;4.45;;
63320;SDS011;49449;48.800;9.534;2023-07-08T09:11:21;6.88;;;5.28;;
63320;SDS011;49449;48.800;9.534;2023-07-08T09:13:54;8.25;;;5.45;;
63320;SDS011;49449;48.800;9.534;2023-07-08T09:16:25;8.10;;;4.75;;
63320;SDS011;49449;48.800;9.534;2023-07-08T09:19:04;6.05;;;4.93;;
63320;SDS011;49449;48.800;9.534;2023-07-08T09:21:36;7.50;;;5.68;;
63320;SDS011;49449;48.800;9.534;2023-07-08T09:24:15;6.72;;;4.38;;
63320;SDS011;49449;48.800;9.534;2023-07-08T09:26:46;6.95;;;5.05;;
63320;SDS011;49449;48.800;9.534;2023-07-08T09:29:17;6.38;;;4.68;;
63320;SDS011;49449;48.800;9.534;2023-07-08T09:31:45;6.82;;;4.65;;
63320;SDS011;49449;48.800;9.534;2023-07-08T09:34:15;5.78;;;4.57;;
63320;SDS011;49449;48.800;9.534;2023-07-08T09:36:45;5.88;;;4.60;;
63320;SDS011;49449;48.800;9.534;2023-07-08T09:39:15;6.18;;;4.18;;
63320;SDS011;49449;48.800;9.534;2023-07-08T09:41:45;5.68;;;3.67;;
63320;SDS011;49449;48.800;9.534;2023-07-08T09:44:16;7.95;;;4.32;;
63320;SDS011;49449;48.800;9.534;2023-07-08T09:46:48;4.93;;;4.03;;
63320;SDS011;49449;48.800;9.534;2023-07-08T09:49:22;5.05;;;4.00;;
63320;SDS011;49449;48.800;9.534;2023-07-08T09:51:51;6.18;;;4.70;;
63320;SDS011;49449;48.800;9.534;2023-07-08T09:54:20;5.70;;;4.32;;
63320;SDS011;49449;48.800;9.534;2023-07-08T09:56:52;5.85;;;3.80;;
63320;SDS011;49449;48.800;9.534;2023-07-08T09:59:26;6.32;;;4.47;;
63320;SDS011;49449;48.800;9.534;2023-07-08T10:02:02;5.78;;;3.80;;
63320;SDS011;49449;48.800;9.534;2023-07-08T10:04:53;4.65;;;3.40;;
63320;SDS011;49449;48.800;9.534;2023-07-08T10:07:23;4.65;;;3.75;;
63320;SDS011;49449;48.800;9.534;2023-07-08T10:09:51;4.70;;;3.80;;
63320;SDS011;49449;48.800;9.534;2023-07-08T10:12:22;5.50;;;3.75;;
63320;SDS011;49449;48.800;9.534;2023-07-08T10:14:52;4.38;;;3.67;;
63320;SDS011;49449;48.800;9.534;2023-07-08T10:17:23;3.83;;;2.85;;
63320;SDS011;49449;48.800;9.534;2023-07-08T10:19:52;5.55;;;3.63;;
63320;SDS011;49449;48.800;9.534;2023-07-08T10:22:22;4.95;;;3.55;;
63320;SDS011;49449;48.800;9.534;2023-07-08T10:25:08;5.90;;;3.80;;
63320;SDS011;49449;48.800;9.534;2023-07-08T10:27:44;8.13;;;4.65;;
63320;SDS011;49449;48.800;9.534;2023-07-08T10:30:19;6.13;;;4.72;;
63320;SDS011;49449;48.800;9.534;2023-07-08T10:32:53;5.97;;;3.50;;
63320;SDS011;49449;48.800;9.534;2023-07-08T10:35:36;6.35;;;4.35;;
63320;SDS011;49449;48.800;9.534;2023-07-08T10:38:15;4.82;;;3.72;;
63320;SDS011;49449;48.800;9.534;2023-07-08T10:40:55;5.00;;;3.90;;
63320;SDS011;49449;48.800;9.534;2023-07-08T10:43:30;7.32;;;3.97;;
63320;SDS011;49449;48.800;9.534;2023-07-08T10:46:13;5.70;;;4.00;;
63320;SDS011;49449;48.800;9.534;2023-07-08T10:51:57;5.82;;;4.20;;
63320;SDS011;49449;48.800;9.534;2023-07-08T10:54:39;5.82;;;3.78;;
63320;SDS011;49449;48.800;9.534;2023-07-08T10:57:21;6.75;;;4.20;;
63320;SDS011;49449;48.800;9.534;2023-07-08T11:00:08;7.13;;;4.00;;
63320;SDS011;49449;48.800;9.534;2023-07-08T11:05:50;4.70;;;3.10;;
63320;SDS011;49449;48.800;9.534;2023-07-08T11:08:29;5.80;;;2.90;;
63320;SDS011;49449;48.800;9.534;2023-07-08T11:11:01;3.92;;;3.30;;
63320;SDS011;49449;48.800;9.534;2023-07-08T11:13:40;4.10;;;2.58;;
63320;SDS011;49449;48.800;9.534;2023-07-08T11:16:15;4.28;;;2.50;;
63320;SDS011;49449;48.800;9.534;2023-07-08T11:18:51;3.05;;;2.40;;
63320;SDS011;49449;48.800;9.534;2023-07-08T11:21:26;2.67;;;2.20;;
63320;SDS011;49449;48.800;9.534;2023-07-08T11:24:00;4.25;;;2.67;;
63320;SDS011;49449;48.800;9.534;2023-07-08T11:26:36;3.92;;;2.33;;
63320;SDS011;49449;48.800;9.534;2023-07-08T11:29:12;3.72;;;2.55;;
63320;SDS011;49449;48.800;9.534;2023-07-08T11:31:45;3.78;;;2.70;;
63320;SDS011;49449;48.800;9.534;2023-07-08T11:34:14;4.63;;;2.90;;
63320;SDS011;49449;48.800;9.534;2023-07-08T11:36:44;4.63;;;2.70;;
63320;SDS011;49449;48.800;9.534;2023-07-08T11:42:18;2.95;;;2.28;;
63320;SDS011;49449;48.800;9.534;2023-07-08T11:44:50;3.17;;;2.20;;
63320;SDS011;49449;48.800;9.534;2023-07-08T11:47:26;3.00;;;1.95;;
63320;SDS011;49449;48.800;9.534;2023-07-08T11:50:02;5.88;;;2.50;;
63320;SDS011;49449;48.800;9.534;2023-07-08T11:52:49;2.70;;;2.42;;
63320;SDS011;49449;48.800;9.534;2023-07-08T11:55:23;3.50;;;2.47;;
63320;SDS011;49449;48.800;9.534;2023-07-08T11:57:56;3.75;;;2.40;;
63320;SDS011;49449;48.800;9.534;2023-07-08T12:00:25;2.88;;;1.85;;
63320;SDS011;49449;48.800;9.534;2023-07-08T12:02:54;3.13;;;2.30;;
63320;SDS011;49449;48.800;9.534;2023-07-08T12:08:11;3.33;;;2.30;;
63320;SDS011;49449;48.800;9.534;2023-07-08T12:10:45;4.13;;;2.00;;
63320;SDS011;49449;48.800;9.534;2023-07-08T12:13:17;2.95;;;2.00;;
63320;SDS011;49449;48.800;9.534;2023-07-08T12:15:46;2.67;;;2.00;;
63320;SDS011;49449;48.800;9.534;2023-07-08T12:18:14;2.13;;;1.90;;
63320;SDS011;49449;48.800;9.534;2023-07-08T12:20:44;3.35;;;2.50;;
63320;SDS011;49449;48.800;9.534;2023-07-08T12:23:14;2.20;;;1.88;;
63320;SDS011;49449;48.800;9.534;2023-07-08T12:25:46;3.05;;;2.05;;
63320;SDS011;49449;48.800;9.534;2023-07-08T12:28:14;1.98;;;1.73;;
63320;SDS011;49449;48.800;9.534;2023-07-08T12:30:43;3.60;;;2.50;;
63320;SDS011;49449;48.800;9.534;2023-07-08T12:33:12;3.45;;;2.97;;
63320;SDS011;49449;48.800;9.534;2023-07-08T12:35:42;3.00;;;1.83;;
63320;SDS011;49449;48.800;9.534;2023-07-08T12:38:14;2.35;;;1.90;;
63320;SDS011;49449;48.800;9.534;2023-07-08T12:40:48;2.47;;;2.00;;
63320;SDS011;49449;48.800;9.534;2023-07-08T12:43:17;3.15;;;2.00;;
63320;SDS011;49449;48.800;9.534;2023-07-08T12:45:45;3.03;;;2.05;;
63320;SDS011;49449;48.800;9.534;2023-07-08T12:48:13;2.45;;;2.13;;
63320;SDS011;49449;48.800;9.534;2023-07-08T12:50:41;2.85;;;2.35;;
63320;SDS011;49449;48.800;9.534;2023-07-08T12:53:10;2.20;;;2.10;;
63320;SDS011;49449;48.800;9.534;2023-07-08T12:55:39;3.50;;;2.47;;
63320;SDS011;49449;48.800;9.534;2023-07-08T12:58:12;3.30;;;1.83;;
63320;SDS011;49449;48.800;9.534;2023-07-08T13:00:41;2.47;;;2.28;;
63320;SDS011;49449;48.800;9.534;2023-07-08T13:03:12;3.22;;;2.28;;
63320;SDS011;49449;48.800;9.534;2023-07-08T13:05:42;3.22;;;2.00;;
63320;SDS011;49449;48.800;9.534;2023-07-08T13:08:11;3.38;;;2.10;;
63320;SDS011;49449;48.800;9.534;2023-07-08T13:10:39;2.92;;;2.20;;
63320;SDS011;49449;48.800;9.534;2023-07-08T13:13:11;3.97;;;2.25;;
63320;SDS011;49449;48.800;9.534;2023-07-08T13:15:44;4.13;;;2.45;;
63320;SDS011;49449;48.800;9.534;2023-07-08T13:18:13;3.10;;;1.95;;
63320;SDS011;49449;48.800;9.534;2023-07-08T13:20:43;2.67;;;1.95;;
63320;SDS011;49449;48.800;9.534;2023-07-08T13:23:14;3.35;;;2.20;;
63320;SDS011;49449;48.800;9.534;2023-07-08T13:25:42;3.88;;;2.33;;
63320;SDS011;49449;48.800;9.534;2023-07-08T13:28:18;3.15;;;2.25;;
63320;SDS011;49449;48.800;9.534;2023-07-08T13:30:50;2.83;;;2.10;;
63320;SDS011;49449;48.800;9.534;2023-07-08T13:33:20;2.78;;;1.83;;
63320;SDS011;49449;48.800;9.534;2023-07-08T13:35:48;3.15;;;2.40;;
63320;SDS011;49449;48.800;9.534;2023-07-08T13:38:19;3.25;;;2.15;;
63320;SDS011;49449;48.800;9.534;2023-07-08T13:40:49;5.32;;;2.38;;
63320;SDS011;49449;48.800;9.534;2023-07-08T13:43:24;2.92;;;2.63;;
63320;SDS011;49449;48.800;9.534;2023-07-08T13:45:54;3.33;;;2.33;;
63320;SDS011;49449;48.800;9.534;2023-07-08T13:48:23;3.10;;;2.45;;
63320;SDS011;49449;48.800;9.534;2023-07-08T13:50:56;3.30;;;2.10;;
63320;SDS011;49449;48.800;9.534;2023-07-08T13:53:33;3.85;;;2.50;;
63320;SDS011;49449;48.800;9.534;2023-07-08T13:56:13;2.35;;;2.15;;
63320;SDS011;49449;48.800;9.534;2023-07-08T13:58:45;3.05;;;2.58;;
63320;SDS011;49449;48.800;9.534;2023-07-08T14:01:15;3.85;;;2.60;;
63320;SDS011;49449;48.800;9.534;2023-07-08T14:03:46;2.78;;;2.00;;
63320;SDS011;49449;48.800;9.534;2023-07-08T14:06:14;3.53;;;2.03;;
63320;SDS011;49449;48.800;9.534;2023-07-08T14:08:43;5.05;;;2.03;;
63320;SDS011;49449;48.800;9.534;2023-07-08T14:11:11;2.35;;;2.15;;
63320;SDS011;49449;48.800;9.534;2023-07-08T14:13:38;2.53;;;2.00;;
63320;SDS011;49449;48.800;9.534;2023-07-08T14:16:22;2.90;;;2.33;;
63320;SDS011;49449;48.800;9.534;2023-07-08T14:18:53;2.92;;;2.50;;
63320;SDS011;49449;48.800;9.534;2023-07-08T14:21:21;3.20;;;2.30;;
63320;SDS011;49449;48.800;9.534;2023-07-08T14:23:49;5.30;;;2.70;;
63320;SDS011;49449;48.800;9.534;2023-07-08T14:26:17;4.10;;;2.40;;
63320;SDS011;49449;48.800;9.534;2023-07-08T14:28:45;3.92;;;2.85;;
63320;SDS011;49449;48.800;9.534;2023-07-08T14:31:15;4.05;;;2.30;;
63320;SDS011;49449;48.800;9.534;2023-07-08T14:33:47;2.72;;;2.30;;
63320;SDS011;49449;48.800;9.534;2023-07-08T14:36:15;3.80;;;2.97;;
63320;SDS011;49449;48.800;9.534;2023-07-08T14:38:43;3.03;;;2.70;;
63320;SDS011;49449;48.800;9.534;2023-07-08T14:41:11;3.08;;;2.28;;
63320;SDS011;49449;48.800;9.534;2023-07-08T14:43:39;4.55;;;2.67;;
63320;SDS011;49449;48.800;9.534;2023-07-08T14:46:08;5.05;;;2.50;;
63320;SDS011;49449;48.800;9.534;2023-07-08T14:48:38;5.80;;;2.78;;
63320;SDS011;49449;48.800;9.534;2023-07-08T14:51:06;4.43;;;2.92;;
63320;SDS011;49449;48.800;9.534;2023-07-08T14:53:34;3.33;;;2.30;;
63320;SDS011;49449;48.800;9.534;2023-07-08T14:56:03;3.08;;;2.50;;
63320;SDS011;49449;48.800;9.534;2023-07-08T14:58:39;3.35;;;3.00;;
63320;SDS011;49449;48.800;9.534;2023-07-08T15:01:11;3.72;;;2.38;;
63320;SDS011;49449;48.800;9.534;2023-07-08T15:03:46;5.35;;;2.45;;
63320;SDS011;49449;48.800;9.534;2023-07-08T15:06:14;4.25;;;2.97;;
63320;SDS011;49449;48.800;9.534;2023-07-08T15:08:42;4.53;;;2.80;;
63320;SDS011;49449;48.800;9.534;2023-07-08T15:11:10;4.07;;;2.50;;
63320;SDS011;49449;48.800;9.534;2023-07-08T15:13:39;4.90;;;2.88;;
63320;SDS011;49449;48.800;9.534;2023-07-08T15:16:09;4.30;;;2.90;;
63320;SDS011;49449;48.800;9.534;2023-07-08T15:18:39;3.38;;;2.63;;
63320;SDS011;49449;48.800;9.534;2023-07-08T15:21:09;4.03;;;2.50;;
63320;SDS011;49449;48.800;9.534;2023-07-08T15:23:38;4.00;;;2.35;;